Terminal Aerodrome Forecast
Issued by NWS Sioux Falls, SD

Home | Current Version | Previous Version | Graphics & Text | Print | Product List | Glossary On
Versions: 1 2 3 4 5 6 7 8 9 10 11 12 13 14 15
000
FTUS43 KFSD 081730
TAFSUX
TAF
KSUX 081730Z 0818/0918 32012KT P6SM OVC015
     FM082100 31014KT P6SM OVC020
     FM082300 30012KT P6SM OVC090
     FM090300 32014KT P6SM SCT150
     FM090500 33015G23KT P6SM SCT045
     FM090900 34014KT P6SM SCT200=

USA.gov is the U.S. government's official web portal to all federal, state and local government web resources and services.